Pagina principală
METAR-TAF:

METAR-TAF

Aeroporturi :

Koumac, Noua Caledonie

Latitudine: 20-34S, longitudine: 164-17E, elevație: 23 m

METAR: lipsă

Ora: 21:01 (10:01 UTC)

Prognoză

Raportul a fost făcut în urmă cu 11 ore și 1 de minute, la 23:00 UTC
Prognoză valabilă de la 18 ora 00 UTC la 18 ora 24 UTC
Vânt 12 kt de la Sud/Sud-est
Vizibilitate de 10 km sau mai mult
Nori puțini la o înălțime de 5000 picior
Devenind
de la 18 ora 07 UTC la 18 ora 09 UTC
Vânt 2 kt din direcții variabile

TAF: NWWK 172300Z 1800/1824 16012KT 9999 FEW050 BECMG 1807/1809 VRB02KT

Observații și prognoze meteo pentru peste 4.000 de aeroporturi (rapoarte METAR și TAF).

Stațiile disponibile sunt reprezentate pe hartă prin puncte galbene și roșii.

Țineți indicatorul mouse-ului pe punctul dorit pentru a vedea denumirea stației.

Apoi, faceți clic pentru a vedea observațiile și prognozele meteorologice.

Pentru a schimba harta: Pentru mărire, faceți clic pe butoanele verzi cu cruce neagră; pentru micșorare, pe butonul verde cu o liniuță; pentru hărți învecinate, pe săgețile verzi.


METAR-TAF: